Latest Weather Observations for Walpeup RS

IDV60801

Issued at 10:35 pm EST Thursday 28 August 2014 (issued every 30 minutes, with the page automatically refreshed every 10 minutes)

About weather observations | Map of weather stations | Latest weather observations for VIC | Other Formats
Station Details ID: 076064 Name: WALPEUP RESEARCH Lat: -35.12 Lon: 142.00 Height: 105.0 m
Data from the previous 72 hours. | See also: Recent months at Walpeup RS
Date/Time
EST
Temp
°C
App
Temp
°C
Dew
Point
Rel
Hum
%
Delta-T
°C
Wind Press
QNH
hPa
Press
MSL
hPa
Rain
since 9 am
mm
Dir
 
Spd
km/h
Gust
km/h
Spd
kts
Gust
kts
28/10:30pm 16.0 12.9 3.4 43 5.8 ESE 9 13 5 7 - - 0.0
28/10:00pm 14.6 11.5 3.7 48 5.0 SSE 9 11 5 6 - - 0.0
28/09:30pm 15.1 13.2 4.8 50 4.8 SW 4 9 2 5 - - 0.0
28/09:00pm 14.3 12.2 3.7 49 4.8 S 4 6 2 3 - - 0.0
28/08:30pm 16.3 15.1 4.7 46 5.5 CALM 0 0 0 0 - - 0.0
28/08:00pm 17.5 16.0 5.1 44 6.0 NW 2 4 1 2 - - 0.0
28/07:30pm 17.8 15.9 5.1 43 6.1 NW 4 4 2 2 - - 0.0
28/07:00pm 18.0 16.2 5.2 43 6.2 NNW 4 4 2 2 - - 0.0
28/06:30pm 18.4 16.6 5.3 42 6.4 NNW 4 6 2 3 - - 0.0
28/06:00pm 19.8 17.8 4.3 36 7.5 WNW 4 6 2 3 - - 0.0
28/05:30pm 22.5 20.9 4.5 31 8.9 NW 2 6 1 3 - - 0.0
28/05:00pm 23.6 21.3 5.0 30 9.3 WSW 6 11 3 6 - - 0.0
28/04:30pm 23.4 21.9 4.9 30 9.3 WNW 2 7 1 4 - - 0.0
28/04:00pm 23.6 21.1 4.5 29 9.5 WSW 7 13 4 7 - - 0.0
28/03:30pm 23.4 21.0 4.4 29 9.4 WSW 6 9 3 5 - - 0.0
28/03:00pm 23.5 20.6 4.5 29 9.4 SW 9 17 5 9 - - 0.0
28/02:30pm 23.4 20.2 4.9 30 9.3 WSW 11 20 6 11 - - 0.0
28/02:00pm 22.1 18.9 5.1 33 8.5 S 11 20 6 11 - - 0.0
28/01:30pm 21.9 19.0 4.9 33 8.4 WSW 9 19 5 10 - - 0.0
28/01:00pm 21.7 18.5 5.2 34 8.2 SSW 11 19 6 10 - - 0.0
28/12:30pm 21.9 19.6 5.8 35 8.1 W 7 15 4 8 - - 0.0
28/12:00pm 21.4 19.3 5.7 36 7.9 WNW 6 9 3 5 - - 0.0
28/11:30am 20.1 18.4 5.7 39 7.2 W 4 7 2 4 - - 0.0
28/11:00am 19.8 18.2 6.5 42 6.7 NE 4 6 2 3 - - 0.0
28/10:30am 17.9 15.8 6.7 48 5.6 NE 7 9 4 5 - - 0.0
28/10:00am 16.8 14.3 6.6 51 5.0 NE 9 13 5 7 - - 0.0
28/09:30am 15.9 13.4 6.6 54 4.6 ENE 9 13 5 7 - - 0.0
28/09:00am 14.6 12.5 6.7 59 3.9 E 7 11 4 6 - - 0.0
28/08:30am 13.2 11.2 6.1 62 3.4 E 6 7 3 4 - - 0.0
28/08:00am 11.5 8.8 5.4 66 2.8 E 9 11 5 6 - - 0.0
28/07:30am 10.0 7.2 5.0 71 2.3 ESE 9 13 5 7 - - 0.0
28/07:00am 9.0 6.1 4.8 75 1.9 ESE 9 13 5 7 - - 0.0
28/06:30am 9.3 6.7 4.3 71 2.2 SE 7 11 4 6 - - 0.0
28/06:00am 10.9 8.1 5.2 68 2.6 ESE 9 13 5 7 - - 0.0
28/05:30am 11.0 8.1 4.9 66 2.8 ESE 9 11 5 6 - - 0.0
28/05:00am 11.5 8.6 4.9 64 3.0 ESE 9 13 5 7 - - 0.0
28/04:30am 11.7 8.4 4.7 62 3.2 ESE 11 13 6 7 - - 0.0
28/04:00am 11.9 8.6 4.6 61 3.3 ESE 11 15 6 8 - - 0.0
28/03:30am 12.3 9.0 4.8 60 3.5 ESE 11 15 6 8 - - 0.0
28/03:00am 13.0 10.1 4.9 58 3.8 SE 9 11 5 6 - - 0.0
28/02:30am 12.6 9.8 5.1 60 3.5 SE 9 11 5 6 - - 0.0
28/02:00am 13.0 10.1 4.9 58 3.8 SE 9 9 5 5 - - 0.0
28/01:30am 12.6 9.7 4.8 59 3.6 SSE 9 11 5 6 - - 0.0
28/01:00am 12.9 10.0 4.6 57 3.8 SE 9 9 5 5 - - 0.0
28/12:30am 13.6 11.1 4.7 55 4.1 SE 7 9 4 5 - - 0.0
28/12:00am 13.1 9.9 5.0 58 3.8 SE 11 13 6 7 - - 0.0
 
Date/Time
EST
Temp
°C
App
Temp
°C
Dew
Point
Rel
Hum
%
Delta-T
°C
Wind Press
QNH
hPa
Press
MSL
hPa
Rain
since 9 am
mm
Dir
 
Spd
km/h
Gust
km/h
Spd
kts
Gust
kts
27/11:30pm 11.7 8.4 4.7 62 3.2 SSE 11 13 6 7 - - 0.0
27/11:00pm 14.6 12.7 4.9 52 4.6 ENE 4 6 2 3 - - 0.0
27/10:30pm 14.7 12.4 5.0 52 4.6 ENE 6 7 3 4 - - 0.0
27/10:00pm 14.6 12.1 4.9 52 4.6 ENE 7 7 4 4 - - 0.0
27/09:30pm 14.7 12.2 5.0 52 4.6 ENE 7 9 4 5 - - 0.0
27/09:00pm 14.4 12.1 5.0 53 4.4 ENE 6 7 3 4 - - 0.0
27/08:30pm 14.9 12.4 4.6 50 4.8 E 7 9 4 5 - - 0.0
27/08:00pm 15.1 12.6 4.8 50 4.8 ENE 7 7 4 4 - - 0.0
27/07:30pm 15.9 13.1 5.2 49 5.1 ENE 9 11 5 6 - - 0.0
27/07:00pm 16.0 13.8 5.3 49 5.1 ENE 6 7 3 4 - - 0.0
27/06:30pm 16.3 14.5 5.3 48 5.3 E 4 6 2 3 - - 0.0
27/06:00pm 18.3 16.5 5.2 42 6.4 ENE 4 7 2 4 - - 0.0
27/05:30pm 20.6 18.8 5.4 37 7.5 ENE 4 9 2 5 - - 0.0
27/05:00pm 21.0 18.6 5.4 36 7.8 E 7 13 4 7 - - 0.0
27/04:30pm 21.3 18.9 5.2 35 8.0 E 7 15 4 8 - - 0.0
27/04:00pm 21.5 19.0 5.0 34 8.2 SE 7 17 4 9 - - 0.0
27/03:30pm 21.3 18.9 5.2 35 8.0 ESE 7 13 4 7 - - 0.0
27/03:00pm 21.2 18.4 5.1 35 8.0 ENE 9 17 5 9 - - 0.0
27/02:30pm 21.2 18.8 5.1 35 8.0 ENE 7 11 4 6 - - 0.0
27/02:00pm 21.3 18.1 5.2 35 8.0 ENE 11 19 6 10 - - 0.0
27/01:30pm 20.8 19.0 5.6 37 7.6 NW 4 11 2 6 - - 0.0
27/01:00pm 20.8 18.2 6.0 38 7.4 ENE 9 17 5 9 - - 0.0
27/12:30pm 20.4 17.8 6.0 39 7.2 E 9 20 5 11 - - 0.0
27/12:00pm 19.7 16.7 6.1 41 6.8 E 11 19 6 10 - - 0.0
27/11:30am 19.1 15.3 5.9 42 6.5 ENE 15 22 8 12 - - 0.0
27/11:00am 18.8 15.4 6.0 43 6.3 NE 13 26 7 14 - - 0.0
27/10:30am 17.8 14.0 6.0 46 5.8 NE 15 22 8 12 - - 0.0
27/10:00am 16.6 12.8 5.9 49 5.2 NE 15 26 8 14 - - 0.0
27/09:30am 16.3 13.0 6.4 52 4.9 NE 13 19 7 10 - - 0.0
27/09:00am 15.5 13.5 6.2 54 4.5 NE 6 7 3 4 - - 0.0
27/08:30am 12.4 11.1 6.0 65 3.0 SSE 2 4 1 2 - - 0.0
27/08:00am 10.4 8.2 5.2 70 2.4 E 6 9 3 5 - - 0.0
27/07:30am 8.3 5.3 4.3 76 1.8 E 9 11 5 6 - - 0.0
27/07:00am 8.3 5.0 4.3 76 1.8 E 11 15 6 8 - - 0.0
27/06:30am 8.6 4.9 4.4 75 1.9 E 13 17 7 9 - - 0.0
27/06:00am 9.2 5.9 4.8 74 2.0 ESE 11 17 6 9 - - 0.0
27/05:30am 9.6 6.0 4.8 72 2.2 ESE 13 17 7 9 - - 0.0
27/05:00am 9.4 6.1 4.6 72 2.1 E 11 15 6 8 - - 0.0
27/04:30am 9.9 6.6 4.5 69 2.4 ESE 11 15 6 8 - - 0.0
27/04:00am 11.1 7.8 4.8 65 2.9 ESE 11 13 6 7 - - 0.0
27/03:49am 11.0 8.1 4.9 66 2.8 ESE 9 13 5 7 - - 0.0
27/03:30am 6.0 3.0 1.7 74 1.7 SE 7 11 4 6 - - 0.0
27/03:00am 5.9 2.9 0.9 70 2.0 SE 6 9 3 5 - - 0.0
27/02:30am 7.6 5.0 3.1 73 1.9 SE 6 7 3 4 - - 0.0
27/02:00am 7.7 4.9 1.8 66 2.4 SE 6 9 3 5 - - 0.0
27/01:30am 10.7 7.5 3.3 60 3.2 ESE 9 11 5 6 - - 0.0
27/01:00am 11.2 7.7 3.5 59 3.4 ESE 11 15 6 8 - - 0.0
27/12:30am 11.1 8.0 3.6 60 3.3 SE 9 11 5 6 - - 0.0
27/12:00am 9.7 6.9 3.4 65 2.7 SSE 7 11 4 6 - - 0.0
 
Date/Time
EST
Temp
°C
App
Temp
°C
Dew
Point
Rel
Hum
%
Delta-T
°C
Wind Press
QNH
hPa
Press
MSL
hPa
Rain
since 9 am
mm
Dir
 
Spd
km/h
Gust
km/h
Spd
kts
Gust
kts
26/11:30pm 9.9 7.3 3.2 63 2.9 SSE 6 7 3 4 - - 0.0
26/11:00pm 10.4 7.8 3.0 60 3.2 S 6 7 3 4 - - 0.0
26/10:30pm 11.9 9.1 3.4 56 3.8 SSE 7 9 4 5 - - 0.0
26/10:00pm 11.5 8.9 3.3 57 3.6 SSE 6 7 3 4 - - 0.0
26/09:30pm 13.9 11.1 3.4 49 4.8 SE 7 9 4 5 - - 0.0
26/09:00pm 14.4 11.7 3.5 48 5.0 ESE 7 9 4 5 - - 0.0
26/08:30pm 14.7 12.0 3.5 47 5.1 ESE 7 9 4 5 - - 0.0
26/08:00pm 14.6 11.9 3.7 48 5.0 ESE 7 9 4 5 - - 0.0
26/07:30pm 14.8 12.1 3.6 47 5.1 ESE 7 9 4 5 - - 0.0
26/07:00pm 15.4 12.9 3.9 46 5.3 ESE 6 7 3 4 - - 0.0
26/06:30pm 15.9 13.4 4.0 45 5.5 ESE 6 7 3 4 - - 0.0
26/06:00pm 17.3 14.8 3.9 41 6.3 ESE 6 7 3 4 - - 0.0
26/05:30pm 18.8 16.2 3.4 36 7.2 E 6 9 3 5 - - 0.0
26/05:00pm 19.2 16.4 3.0 34 7.6 SE 7 13 4 7 - - 0.0
26/04:30pm 19.6 16.0 2.9 33 7.8 ESE 11 17 6 9 - - 0.0
26/04:00pm 20.0 17.1 2.8 32 8.1 SE 7 13 4 7 - - 0.0
26/03:30pm 20.1 17.3 3.3 33 8.0 SE 7 13 4 7 - - 0.0
26/03:00pm 19.9 16.4 3.6 34 7.8 S 11 19 6 10 - - 0.0
26/02:30pm 19.3 15.9 3.9 36 7.3 SE 11 22 6 12 - - 0.0
26/02:00pm 18.6 15.3 4.4 39 6.8 S 11 20 6 11 - - 0.0
26/01:30pm 18.4 16.0 5.3 42 6.4 SSE 7 19 4 10 - - 0.0
26/01:00pm 18.7 16.3 5.2 41 6.6 SW 7 11 4 6 - - 0.0
26/12:30pm 17.7 14.9 5.0 43 6.1 SSW 9 19 5 10 - - 0.0
26/12:00pm 16.5 14.2 5.5 48 5.3 S 7 15 4 8 - - 0.0
26/11:30am 16.1 14.0 6.0 51 4.9 E 6 9 3 5 - - 0.0
26/11:00am 15.4 13.5 6.7 56 4.3 SE 6 9 3 5 - - 0.0
26/10:30am 13.6 11.4 6.2 61 3.5 SSE 7 9 4 5 - - 0.0
26/10:00am 11.7 9.2 6.6 71 2.4 SSE 9 15 5 8 - - 0.0
26/09:30am 9.8 7.4 7.1 83 1.3 S 9 13 5 7 - - 0.0
26/09:00am 8.2 5.0 7.0 92 0.6 S 13 15 7 8 - - 0.2
26/08:30am 7.0 4.0 5.9 93 0.5 SSE 11 19 6 10 - - 0.2
26/08:00am 5.9 2.1 5.6 98 0.1 SSE 15 17 8 9 - - 0.2
26/07:30am 4.6 0.9 4.3 98 0.1 S 13 17 7 9 - - 0.2
26/07:00am 4.0 0.5 3.6 97 0.2 S 11 13 6 7 - - 0.2
26/06:30am 4.1 0.3 3.7 97 0.2 S 13 15 7 8 - - 0.2
26/06:00am 4.5 0.7 3.9 96 0.3 S 13 17 7 9 - - 0.2
26/05:30am 4.6 1.2 4.0 96 0.3 S 11 17 6 9 - - 0.2
26/05:00am 4.9 1.2 4.2 95 0.3 S 13 19 7 10 - - 0.2
26/04:30am 5.3 1.6 4.7 96 0.3 S 13 15 7 8 - - 0.0
26/04:00am 5.0 1.7 4.3 95 0.3 S 11 13 6 7 - - 0.0
26/03:30am 5.8 2.6 4.9 94 0.4 S 11 15 6 8 - - 0.0
26/03:00am 5.7 2.5 5.0 95 0.3 S 11 15 6 8 - - 0.0
26/02:30am 5.3 2.0 4.4 94 0.4 S 11 15 6 8 - - 0.0
26/02:00am 5.5 2.6 4.5 93 0.4 S 9 13 5 7 - - 0.0
26/01:30am 5.5 2.2 4.3 92 0.5 SSW 11 13 6 7 - - 0.0
26/01:00am 6.5 3.3 5.3 92 0.5 S 11 15 6 8 - - 0.0
26/12:30am 6.7 3.5 5.0 89 0.7 S 11 13 6 7 - - 0.0
26/12:00am 7.0 4.2 5.0 87 0.9 S 9 11 5 6 - - 0.0
 
Date/Time
EST
Temp
°C
App
Temp
°C
Dew
Point
Rel
Hum
%
Delta-T
°C
Wind Press
QNH
hPa
Press
MSL
hPa
Rain
since 9 am
mm
Dir
 
Spd
km/h
Gust
km/h
Spd
kts
Gust
kts
25/11:30pm 7.8 4.6 5.3 84 1.1 S 11 13 6 7 - - 0.0
25/11:00pm 8.3 4.8 5.4 82 1.3 S 13 19 7 10 - - 0.0

Other Formats:

Comma delimited format used in spreadsheet applications
http://www.bom.gov.au/fwo/IDV60801/IDV60801.95831.axf

JavaScript Object Notation format (JSON) in row-major order
http://www.bom.gov.au/fwo/IDV60801/IDV60801.95831.json